createdAt,value
2023-02-04T00:00:07.735Z,4.48
2023-02-04T00:02:34.988Z,3.94
2023-02-04T00:05:01.750Z,4.18
2023-02-04T00:07:28.382Z,4.43
2023-02-04T00:09:55.122Z,4.25
2023-02-04T00:12:21.978Z,4.58
2023-02-04T00:14:48.631Z,3.22
2023-02-04T00:17:15.455Z,3.24
2023-02-04T00:19:42.788Z,3.38
2023-02-04T00:22:09.784Z,2.98
2023-02-04T00:24:37.734Z,3.04
2023-02-04T00:27:05.540Z,3.44
2023-02-04T00:29:32.166Z,2.66
2023-02-04T00:31:58.907Z,3.17
2023-02-04T00:34:25.962Z,2.92
2023-02-04T00:36:52.576Z,3.31
2023-02-04T00:39:19.248Z,3.18
2023-02-04T00:41:45.884Z,2.82
2023-02-04T00:44:14.180Z,3.58
2023-02-04T00:46:43.726Z,3.68
2023-02-04T00:49:11.160Z,4.31
2023-02-04T00:51:39.430Z,4.44
2023-02-04T00:54:07.331Z,4.65
2023-02-04T00:56:35.432Z,4.46
2023-02-04T00:59:02.175Z,4.18
2023-02-04T01:01:28.953Z,4.33
2023-02-04T01:03:55.648Z,3.85
2023-02-04T01:06:22.302Z,3.40
2023-02-04T01:08:49.083Z,4.00
2023-02-04T01:11:16.012Z,4.50
2023-02-04T01:13:43.096Z,4.20
2023-02-04T01:16:09.925Z,1.78
2023-02-04T01:18:36.867Z,2.20
2023-02-04T01:21:03.695Z,1.23
2023-02-04T01:23:30.402Z,1.26
2023-02-04T01:25:57.217Z,1.68
2023-02-04T01:28:24.072Z,2.29
2023-02-04T01:30:50.746Z,2.71
2023-02-04T01:33:17.508Z,2.88
2023-02-04T01:35:44.161Z,1.93
2023-02-04T01:38:10.762Z,3.26
2023-02-04T01:40:37.624Z,2.88
2023-02-04T01:43:04.568Z,1.52
2023-02-04T01:45:34.456Z,2.34
2023-02-04T01:48:04.071Z,2.79
2023-02-04T01:50:31.161Z,1.40
2023-02-04T01:52:58.494Z,2.59
2023-02-04T01:55:28.419Z,1.25
2023-02-04T01:57:56.159Z,1.43
2023-02-04T02:00:30.042Z,2.31
2023-02-04T02:02:57.842Z,3.20
2023-02-04T02:05:29.139Z,2.98
2023-02-04T02:07:58.733Z,3.44
2023-02-04T02:10:25.865Z,2.49
2023-02-04T02:12:55.278Z,3.05
2023-02-04T02:15:22.230Z,4.08
2023-02-04T02:17:49.463Z,4.97
2023-02-04T02:20:17.944Z,4.90
2023-02-04T02:23:06.316Z,5.41
2023-02-04T02:25:33.645Z,5.37
2023-02-04T02:28:01.815Z,5.26
2023-02-04T02:30:29.690Z,5.45
2023-02-04T02:32:57.568Z,5.09
2023-02-04T02:35:24.385Z,5.66
2023-02-04T02:37:51.383Z,5.45
2023-02-04T02:40:18.820Z,6.09
2023-02-04T02:42:51.002Z,5.67
2023-02-04T02:45:27.149Z,5.40
2023-02-04T02:47:56.325Z,5.57
2023-02-04T02:50:25.973Z,5.50
2023-02-04T02:52:53.840Z,5.70
2023-02-04T02:55:23.817Z,4.56
2023-02-04T02:57:52.221Z,5.18
2023-02-04T03:00:25.177Z,4.99
2023-02-04T03:03:04.655Z,4.69
2023-02-04T03:05:36.434Z,4.89
2023-02-04T03:08:03.800Z,4.84
2023-02-04T03:10:31.068Z,5.37
2023-02-04T03:12:59.266Z,5.83
2023-02-04T03:15:26.467Z,4.86
2023-02-04T03:17:56.581Z,4.62
2023-02-04T03:20:25.520Z,4.98
2023-02-04T03:22:52.793Z,5.18
2023-02-04T03:25:20.519Z,6.01
2023-02-04T03:27:47.579Z,5.88
2023-02-04T03:30:14.253Z,5.96
2023-02-04T03:32:41.830Z,5.86
2023-02-04T03:35:09.395Z,5.55
2023-02-04T03:37:35.991Z,5.77
2023-02-04T03:40:02.733Z,6.28
2023-02-04T03:42:29.302Z,5.47
2023-02-04T03:44:56.028Z,5.05
2023-02-04T03:47:22.644Z,4.98
2023-02-04T03:49:49.292Z,5.18
2023-02-04T03:52:15.967Z,5.41
2023-02-04T03:54:42.630Z,4.95
2023-02-04T03:57:10.019Z,4.87
2023-02-04T03:59:36.712Z,5.10
2023-02-04T04:02:04.004Z,5.43
2023-02-04T04:04:30.604Z,5.10
2023-02-04T04:06:57.172Z,4.96
2023-02-04T04:09:23.746Z,5.30
2023-02-04T04:11:50.383Z,4.94
2023-02-04T04:14:16.997Z,5.00
2023-02-04T04:16:43.594Z,5.27
2023-02-04T04:19:10.172Z,4.96
2023-02-04T04:21:36.814Z,4.87
2023-02-04T04:24:03.516Z,5.35
2023-02-04T04:26:30.160Z,5.36
2023-02-04T04:28:56.774Z,4.41
2023-02-04T04:31:23.432Z,4.42
2023-02-04T04:33:50.115Z,4.62
2023-02-04T04:36:16.770Z,4.94
2023-02-04T04:38:43.405Z,4.56
2023-02-04T04:41:09.992Z,4.58
2023-02-04T04:43:36.583Z,4.70
2023-02-04T04:46:03.176Z,4.96
2023-02-04T04:48:29.807Z,4.94
2023-02-04T04:50:56.412Z,4.80
2023-02-04T04:53:23.006Z,5.01
2023-02-04T04:55:49.583Z,4.80
2023-02-04T04:58:16.256Z,4.75
2023-02-04T05:00:42.925Z,5.03
2023-02-04T05:03:09.604Z,4.78
2023-02-04T05:05:39.994Z,4.40
2023-02-04T05:08:10.975Z,4.47
2023-02-04T05:10:37.775Z,4.41
2023-02-04T05:13:04.434Z,4.28
2023-02-04T05:15:31.128Z,3.86
2023-02-04T05:17:58.474Z,4.10
2023-02-04T05:20:25.684Z,4.47
2023-02-04T05:22:52.446Z,4.21
2023-02-04T05:25:19.218Z,4.03
2023-02-04T05:27:46.338Z,4.04
2023-02-04T05:30:14.156Z,4.11
2023-02-04T05:32:41.856Z,4.28
2023-02-04T05:35:08.730Z,4.37
2023-02-04T05:37:35.378Z,4.27
2023-02-04T05:40:02.347Z,3.75
2023-02-04T05:42:28.958Z,4.12
2023-02-04T05:44:55.566Z,4.58
2023-02-04T05:47:22.219Z,4.17
2023-02-04T05:49:48.852Z,4.01
2023-02-04T05:52:15.521Z,4.69
2023-02-04T05:54:47.850Z,4.20
2023-02-04T05:57:14.513Z,4.26
2023-02-04T05:59:41.110Z,3.77
2023-02-04T06:02:07.757Z,3.99
2023-02-04T06:04:34.402Z,3.91
2023-02-04T06:07:03.497Z,3.85
2023-02-04T06:09:30.104Z,3.66
2023-02-04T06:11:57.651Z,3.52
2023-02-04T06:14:24.296Z,3.67
2023-02-04T06:16:50.968Z,3.28
2023-02-04T06:19:17.768Z,3.28
2023-02-04T06:21:44.431Z,3.51
2023-02-04T06:24:11.081Z,3.79
2023-02-04T06:26:38.502Z,4.14
2023-02-04T06:29:05.315Z,4.00
2023-02-04T06:31:32.114Z,3.94
2023-02-04T06:33:58.841Z,4.16
2023-02-04T06:36:25.508Z,4.11
2023-02-04T06:38:52.122Z,3.95
2023-02-04T06:41:18.682Z,4.40
2023-02-04T06:43:45.356Z,4.33
2023-02-04T06:46:11.984Z,4.39
2023-02-04T06:48:38.594Z,4.52
2023-02-04T06:51:05.691Z,4.93
2023-02-04T06:53:32.338Z,4.68
2023-02-04T06:55:58.942Z,4.41
2023-02-04T06:58:25.556Z,4.73
2023-02-04T07:00:52.224Z,5.23
2023-02-04T07:03:18.930Z,4.33
2023-02-04T07:05:45.539Z,4.22
2023-02-04T07:08:12.253Z,4.85
2023-02-04T07:10:38.930Z,4.65
2023-02-04T07:13:05.543Z,4.92
2023-02-04T07:15:32.302Z,4.98
2023-02-04T07:17:59.034Z,5.03
2023-02-04T07:20:25.618Z,4.80
2023-02-04T07:22:52.214Z,4.69
2023-02-04T07:25:18.831Z,4.81
2023-02-04T07:27:45.490Z,4.94
2023-02-04T07:30:12.932Z,5.33
2023-02-04T07:32:39.671Z,4.94
2023-02-04T07:35:06.830Z,4.81
2023-02-04T07:37:33.468Z,5.08
2023-02-04T07:40:00.134Z,5.30
2023-02-04T07:42:26.799Z,4.96
2023-02-04T07:44:53.379Z,5.38
2023-02-04T07:47:20.056Z,5.45
2023-02-04T07:49:46.707Z,5.18
2023-02-04T07:52:13.340Z,5.32
2023-02-04T07:54:39.912Z,5.13
2023-02-04T07:57:06.538Z,5.49
2023-02-04T07:59:33.090Z,5.54
2023-02-04T08:01:59.863Z,6.09
2023-02-04T08:04:26.535Z,5.93
2023-02-04T08:06:53.182Z,6.02
2023-02-04T08:09:19.821Z,5.68
2023-02-04T08:11:46.371Z,5.33
2023-02-04T08:14:13.177Z,5.05
2023-02-04T08:16:39.828Z,5.46
2023-02-04T08:19:06.399Z,5.33
2023-02-04T08:21:33.071Z,5.22
2023-02-04T08:23:59.673Z,5.70
2023-02-04T08:26:26.282Z,5.68
2023-02-04T08:28:53.080Z,6.39
2023-02-04T08:31:19.735Z,6.05
2023-02-04T08:33:46.340Z,5.61
2023-02-04T08:36:12.913Z,5.60
2023-02-04T08:38:41.197Z,5.11
2023-02-04T08:41:07.920Z,5.26
2023-02-04T08:43:34.573Z,4.95
2023-02-04T08:46:01.152Z,5.26
2023-02-04T08:48:27.761Z,5.13
2023-02-04T08:50:54.319Z,5.30
2023-02-04T08:53:20.901Z,5.60
2023-02-04T08:55:47.481Z,5.03
2023-02-04T08:58:14.111Z,5.15
2023-02-04T09:00:40.850Z,4.77
2023-02-04T09:03:07.940Z,5.30
2023-02-04T09:05:34.541Z,5.09
2023-02-04T09:08:01.168Z,5.47
2023-02-04T09:10:27.839Z,4.99
2023-02-04T09:12:56.133Z,4.86
2023-02-04T09:15:27.271Z,5.09
2023-02-04T09:17:55.752Z,5.01
2023-02-04T09:20:22.322Z,5.18
2023-02-04T09:22:50.319Z,5.26
2023-02-04T09:25:17.065Z,5.43
2023-02-04T09:27:43.768Z,5.47
2023-02-04T09:30:10.928Z,5.34
2023-02-04T09:32:37.575Z,4.98
2023-02-04T09:35:04.480Z,5.27
2023-02-04T09:37:31.128Z,5.27
2023-02-04T09:39:57.782Z,5.68
2023-02-04T09:42:26.373Z,5.68
2023-02-04T09:44:53.294Z,5.42
2023-02-04T09:47:24.148Z,5.43
2023-02-04T09:49:50.781Z,5.21
2023-02-04T09:52:19.671Z,5.44
2023-02-04T09:54:46.692Z,5.10
2023-02-04T09:57:16.975Z,5.10
2023-02-04T09:59:44.628Z,4.81
2023-02-04T10:02:25.284Z,5.40
2023-02-04T10:04:55.009Z,5.38
2023-02-04T10:07:25.206Z,5.06
2023-02-04T10:09:54.372Z,4.98
2023-02-04T10:12:21.812Z,5.02
2023-02-04T10:14:48.825Z,5.09
2023-02-04T10:17:22.072Z,4.51
2023-02-04T10:19:49.639Z,4.88
2023-02-04T10:22:19.396Z,5.13
2023-02-04T10:24:46.115Z,5.01
2023-02-04T10:27:17.678Z,4.85
2023-02-04T10:29:58.673Z,5.27
2023-02-04T10:32:31.609Z,5.76
2023-02-04T10:35:03.194Z,5.45
2023-02-04T10:37:30.847Z,5.19
2023-02-04T10:39:58.046Z,4.47
2023-02-04T10:42:27.137Z,4.56
2023-02-04T10:44:54.308Z,5.09
2023-02-04T10:47:27.230Z,4.94
2023-02-04T10:50:18.364Z,5.14
2023-02-04T10:52:49.744Z,4.65
2023-02-04T10:55:22.549Z,4.58
2023-02-04T10:57:51.814Z,4.91
2023-02-04T11:00:21.609Z,5.40
2023-02-04T11:03:08.249Z,5.21
2023-02-04T11:05:36.336Z,4.77
2023-02-04T11:08:19.526Z,5.42
2023-02-04T11:10:46.693Z,5.00
2023-02-04T11:13:26.339Z,5.05
2023-02-04T11:16:10.995Z,4.88
2023-02-04T11:18:53.098Z,5.12
2023-02-04T11:21:42.434Z,4.96
2023-02-04T11:24:12.045Z,4.94
2023-02-04T11:26:53.142Z,4.75
2023-02-04T11:29:34.901Z,4.52
2023-02-04T11:32:26.034Z,5.15
2023-02-04T11:34:53.130Z,5.06
2023-02-04T11:37:36.150Z,5.13
2023-02-04T11:40:20.348Z,5.41
2023-02-04T11:42:48.299Z,5.41
2023-02-04T11:45:25.432Z,5.25
2023-02-04T11:47:52.265Z,5.79
2023-02-04T11:50:38.545Z,5.25
2023-02-04T11:53:05.594Z,5.17
2023-02-04T11:55:36.076Z,5.59
2023-02-04T11:58:03.414Z,5.38
2023-02-04T12:00:32.536Z,5.27
2023-02-04T12:03:07.907Z,5.40
2023-02-04T12:05:47.285Z,5.19
2023-02-04T12:08:25.177Z,5.33
2023-02-04T12:11:01.886Z,4.85
2023-02-04T12:13:30.941Z,4.91
2023-02-04T12:16:07.709Z,5.42
2023-02-04T12:18:35.297Z,5.84
2023-02-04T12:21:04.487Z,5.05
2023-02-04T12:23:31.486Z,4.98
2023-02-04T12:25:58.133Z,5.45
2023-02-04T12:28:25.917Z,5.43
2023-02-04T12:30:52.566Z,5.43
2023-02-04T12:33:19.538Z,5.23
2023-02-04T12:35:46.480Z,5.25
2023-02-04T12:38:13.098Z,5.32
2023-02-04T12:40:39.851Z,5.38
2023-02-04T12:43:06.696Z,5.35
2023-02-04T12:45:33.925Z,4.82
2023-02-04T12:48:00.967Z,5.21
2023-02-04T12:50:27.617Z,5.25
2023-02-04T12:52:58.184Z,5.45
2023-02-04T12:55:27.740Z,5.61
2023-02-04T12:57:56.241Z,5.57
2023-02-04T13:00:24.361Z,5.19
2023-02-04T13:02:55.182Z,5.46
2023-02-04T13:05:22.254Z,5.19
2023-02-04T13:07:48.913Z,5.02
2023-02-04T13:10:15.916Z,5.12
2023-02-04T13:12:46.145Z,4.97
2023-02-04T13:15:13.912Z,4.72
2023-02-04T13:17:40.760Z,5.27
2023-02-04T13:20:07.894Z,5.30
2023-02-04T13:22:34.518Z,5.31
2023-02-04T13:25:03.692Z,4.88
2023-02-04T13:27:31.959Z,5.22
2023-02-04T13:29:58.843Z,5.09
2023-02-04T13:32:25.593Z,5.17
2023-02-04T13:34:52.224Z,5.27
2023-02-04T13:37:18.825Z,5.28
2023-02-04T13:39:45.468Z,5.15
2023-02-04T13:42:12.099Z,5.77
2023-02-04T13:44:38.711Z,5.44
2023-02-04T13:47:05.382Z,5.12
2023-02-04T13:49:32.049Z,5.40
2023-02-04T13:51:58.662Z,5.37
2023-02-04T13:54:25.545Z,5.23
2023-02-04T13:56:52.228Z,5.45
2023-02-04T13:59:20.902Z,5.16
2023-02-04T14:01:47.747Z,5.45
2023-02-04T14:04:14.429Z,5.14
2023-02-04T14:06:43.803Z,5.26
2023-02-04T14:09:12.190Z,5.44
2023-02-04T14:11:39.411Z,5.08
2023-02-04T14:14:06.907Z,5.11
2023-02-04T14:16:34.486Z,5.39
2023-02-04T14:19:02.384Z,4.78
2023-02-04T14:21:29.079Z,4.94
2023-02-04T14:23:55.820Z,4.52
2023-02-04T14:26:22.393Z,4.09
2023-02-04T14:28:49.002Z,4.06
2023-02-04T14:31:15.634Z,3.88
2023-02-04T14:33:42.283Z,4.07
2023-02-04T14:36:09.121Z,3.81
2023-02-04T14:38:35.741Z,3.96
2023-02-04T14:41:02.405Z,4.25
2023-02-04T14:43:29.037Z,3.91
2023-02-04T14:45:55.896Z,4.04
2023-02-04T14:48:22.541Z,4.07
2023-02-04T14:50:49.131Z,3.93
2023-02-04T14:53:15.745Z,3.88
2023-02-04T14:55:42.383Z,3.69
2023-02-04T14:58:09.001Z,3.78
2023-02-04T15:00:38.777Z,3.94
2023-02-04T15:03:05.576Z,4.06
2023-02-04T15:05:32.405Z,4.04
2023-02-04T15:07:59.011Z,4.15
2023-02-04T15:10:25.719Z,4.31
2023-02-04T15:12:55.593Z,4.14
2023-02-04T15:15:22.589Z,4.36
2023-02-04T15:17:50.524Z,3.94
2023-02-04T15:20:17.543Z,3.84
2023-02-04T15:22:44.201Z,3.61
2023-02-04T15:25:13.058Z,4.16
2023-02-04T15:27:39.733Z,3.76
2023-02-04T15:30:06.557Z,3.46
2023-02-04T15:32:33.257Z,3.72
2023-02-04T15:34:59.901Z,3.54
2023-02-04T15:37:26.566Z,3.05
2023-02-04T15:39:53.492Z,3.21
2023-02-04T15:42:20.262Z,2.98
2023-02-04T15:44:46.920Z,2.90
2023-02-04T15:47:13.515Z,2.85
2023-02-04T15:49:40.163Z,3.33
2023-02-04T15:52:10.896Z,3.26
2023-02-04T15:54:40.352Z,3.18
2023-02-04T15:57:07.040Z,2.90
2023-02-04T15:59:33.633Z,3.11
2023-02-04T16:02:00.200Z,3.44
2023-02-04T16:04:26.871Z,3.17
2023-02-04T16:06:58.688Z,2.97
2023-02-04T16:09:26.383Z,2.93
2023-02-04T16:11:52.989Z,3.09
2023-02-04T16:14:19.606Z,2.91
2023-02-04T16:16:46.234Z,2.98
2023-02-04T16:19:12.903Z,2.86
2023-02-04T16:21:39.653Z,2.91
2023-02-04T16:24:06.603Z,2.88
2023-02-04T16:26:33.211Z,3.36
2023-02-04T16:28:59.771Z,3.27
2023-02-04T16:31:26.645Z,2.39
2023-02-04T16:33:53.304Z,2.34
2023-02-04T16:36:20.034Z,2.40
2023-02-04T16:38:46.634Z,2.26
2023-02-04T16:41:14.409Z,2.06
2023-02-04T16:43:41.616Z,2.25
2023-02-04T16:46:08.485Z,2.39
2023-02-04T16:48:36.568Z,2.21
2023-02-04T16:51:03.802Z,2.44
2023-02-04T16:53:30.452Z,2.72
2023-02-04T16:55:57.075Z,2.34
2023-02-04T16:58:23.794Z,2.10
2023-02-04T17:00:50.436Z,2.21
2023-02-04T17:03:17.494Z,2.97
2023-02-04T17:05:44.098Z,2.12
2023-02-04T17:08:13.573Z,2.19
2023-02-04T17:10:59.384Z,2.77
2023-02-04T17:13:26.070Z,3.08
2023-02-04T17:15:54.209Z,2.60
2023-02-04T17:18:20.857Z,2.93
2023-02-04T17:20:47.441Z,2.81
2023-02-04T17:23:14.143Z,2.65
2023-02-04T17:25:40.791Z,2.93
2023-02-04T17:28:07.530Z,2.87
2023-02-04T17:30:34.401Z,2.54
2023-02-04T17:33:01.019Z,3.09
2023-02-04T17:35:27.880Z,3.14
2023-02-04T17:37:54.659Z,2.67
2023-02-04T17:40:21.459Z,2.39
2023-02-04T17:42:48.045Z,2.48
2023-02-04T17:45:14.777Z,2.58
2023-02-04T17:47:41.471Z,2.52
2023-02-04T17:50:10.656Z,2.70
2023-02-04T17:52:38.181Z,2.48
2023-02-04T17:55:28.693Z,2.10
2023-02-04T17:57:56.545Z,2.13
2023-02-04T18:00:25.261Z,2.40
2023-02-04T18:02:52.636Z,2.73
2023-02-04T18:05:25.081Z,2.67
2023-02-04T18:08:16.443Z,2.30
2023-02-04T18:10:45.886Z,2.26
2023-02-04T18:13:31.818Z,2.53
2023-02-04T18:16:00.837Z,2.57
2023-02-04T18:18:35.950Z,3.18
2023-02-04T18:21:29.039Z,2.69
2023-02-04T18:24:10.973Z,3.04
2023-02-04T18:26:44.915Z,2.25
2023-02-04T18:29:34.146Z,2.57
2023-02-04T18:32:06.814Z,2.80
2023-02-04T18:34:38.472Z,2.93
2023-02-04T18:37:23.881Z,3.05
2023-02-04T18:39:50.661Z,3.00
2023-02-04T18:42:24.586Z,2.60
2023-02-04T18:44:52.614Z,2.80
2023-02-04T18:47:32.617Z,3.29
2023-02-04T18:50:00.794Z,3.13
2023-02-04T18:52:27.816Z,3.03
2023-02-04T18:54:59.153Z,2.68
2023-02-04T18:57:36.527Z,2.69
2023-02-04T19:00:09.311Z,2.59
2023-02-04T19:02:46.044Z,2.82
2023-02-04T19:05:36.484Z,2.85
2023-02-04T19:08:06.230Z,2.54
2023-02-04T19:10:37.759Z,2.80
2023-02-04T19:13:27.554Z,3.38
2023-02-04T19:16:04.847Z,2.89
2023-02-04T19:18:42.335Z,2.08
2023-02-04T19:21:25.849Z,2.46
2023-02-04T19:24:19.805Z,2.04
2023-02-04T19:26:53.821Z,2.31
2023-02-04T19:29:24.905Z,2.58
2023-02-04T19:31:56.039Z,2.49
2023-02-04T19:34:33.406Z,2.11
2023-02-04T19:37:00.253Z,2.43
2023-02-04T19:39:40.397Z,2.00
2023-02-04T19:42:22.636Z,1.93
2023-02-04T19:44:51.625Z,1.76
2023-02-04T19:47:46.042Z,1.61
2023-02-04T19:50:12.680Z,1.49
2023-02-04T19:53:03.076Z,1.62
2023-02-04T19:55:42.751Z,1.71
2023-02-04T19:58:22.249Z,2.10
2023-02-04T20:00:52.015Z,2.10
2023-02-04T20:03:37.404Z,2.03
2023-02-04T20:06:10.232Z,1.83
2023-02-04T20:08:44.890Z,1.69
2023-02-04T20:11:34.637Z,1.77
2023-02-04T20:14:16.003Z,1.87
2023-02-04T20:16:59.354Z,1.17
2023-02-04T20:19:31.616Z,1.67
2023-02-04T20:22:20.912Z,1.49
2023-02-04T20:24:54.365Z,1.53
2023-02-04T20:27:20.856Z,1.33
2023-02-04T20:29:48.812Z,1.45
2023-02-04T20:32:26.442Z,1.33
2023-02-04T20:35:15.016Z,0.71
2023-02-04T20:37:42.688Z,1.07
2023-02-04T20:40:33.059Z,1.15
2023-02-04T20:43:06.275Z,0.84
2023-02-04T20:45:41.169Z,1.18
2023-02-04T20:48:16.690Z,1.21
2023-02-04T20:50:54.119Z,1.11
2023-02-04T20:53:41.128Z,1.04
2023-02-04T20:56:24.960Z,1.09
2023-02-04T20:58:55.323Z,1.19
2023-02-04T21:01:38.592Z,1.32
2023-02-04T21:04:23.419Z,0.97
2023-02-04T21:06:51.638Z,1.32
2023-02-04T21:09:25.541Z,0.91
2023-02-04T21:11:54.205Z,0.83
2023-02-04T21:14:21.470Z,0.47
2023-02-04T21:16:48.436Z,0.60
2023-02-04T21:19:15.239Z,0.36
2023-02-04T21:21:42.404Z,0.48
2023-02-04T21:24:09.667Z,0.58
2023-02-04T21:26:36.426Z,0.91
2023-02-04T21:29:03.181Z,1.58
2023-02-04T21:31:30.064Z,0.96
2023-02-04T21:33:57.194Z,0.78
2023-02-04T21:36:27.812Z,0.22
2023-02-04T21:38:55.292Z,0.29
2023-02-04T21:41:22.152Z,0.79
2023-02-04T21:43:49.816Z,0.65
2023-02-04T21:46:17.678Z,0.89
2023-02-04T21:48:45.015Z,0.69
2023-02-04T21:51:12.949Z,0.56
2023-02-04T21:53:39.687Z,0.93
2023-02-04T21:56:07.608Z,0.60
2023-02-04T21:58:34.338Z,0.28
2023-02-04T22:01:01.092Z,0.25
2023-02-04T22:03:27.945Z,0.69
2023-02-04T22:05:54.655Z,0.13
2023-02-04T22:08:21.303Z,0.41
2023-02-04T22:10:47.981Z,0.61
2023-02-04T22:13:33.052Z,0.04
2023-02-04T22:15:59.763Z,0.22
2023-02-04T22:18:26.503Z,0.69
2023-02-04T22:20:53.121Z,0.38
2023-02-04T22:23:19.679Z,0.02
2023-02-04T22:25:46.219Z,0.22
2023-02-04T22:28:13.002Z,0.36
2023-02-04T22:30:39.686Z,0.81
2023-02-04T22:33:06.388Z,1.08
2023-02-04T22:35:35.458Z,0.55
2023-02-04T22:38:03.402Z,0.38
2023-02-04T22:40:30.081Z,-0.17
2023-02-04T22:42:56.772Z,-0.21
2023-02-04T22:45:23.351Z,-0.41
2023-02-04T22:47:53.003Z,-0.42
2023-02-04T22:50:19.774Z,-0.26
2023-02-04T22:52:46.474Z,0.08
2023-02-04T22:55:13.269Z,0.59
2023-02-04T22:57:39.853Z,0.64
2023-02-04T23:00:09.165Z,0.67
2023-02-04T23:02:35.859Z,0.47
2023-02-04T23:05:03.045Z,-0.01
2023-02-04T23:07:29.676Z,-0.44
2023-02-04T23:09:56.340Z,-0.17
2023-02-04T23:12:23.451Z,-0.84
2023-02-04T23:14:50.660Z,-0.83
2023-02-04T23:17:18.506Z,-0.74
2023-02-04T23:19:45.484Z,-0.57
2023-02-04T23:22:14.091Z,-0.87
2023-02-04T23:24:42.009Z,-0.74
2023-02-04T23:27:11.277Z,-0.63
2023-02-04T23:29:39.557Z,-0.28
2023-02-04T23:32:06.822Z,-0.69
2023-02-04T23:34:33.903Z,-1.13
2023-02-04T23:37:00.758Z,-0.82
2023-02-04T23:39:27.586Z,-1.10
2023-02-04T23:41:54.208Z,-0.34
2023-02-04T23:44:20.807Z,-0.23
2023-02-04T23:46:47.483Z,-0.60
2023-02-04T23:49:14.332Z,-0.97
2023-02-04T23:51:41.475Z,-0.88
2023-02-04T23:54:08.043Z,-0.88
2023-02-04T23:56:34.897Z,-0.99
2023-02-04T23:59:01.600Z,-1.23
